Detall de PIREP

Printer-friendly versionPDF version

[2012/10/01 12:06:00]
Flight IATA:CT2307
Pilot Number:012
Company ICAO:CAT
Aircraft Type:A343/E
PAX:295
Departing Airport: LIRP
Destination Airport: LIEA
Alternate Airport:LIEO
Online: VATSIM
Route:ELB UL12 TINTO UQ710 GITRI UZ924 KOLUS M603 MOROB
Flight Level:F280
No Slew and time accel
No pause
Crash detect
Detect pilot in Cockpit between each 30 and 45 minutes
12:06 Zero fuel Weight: 334439 Lbs, Fuel Weight: 48904 Lbs
12:06 VATSIM:LIRP 011645Z 08001KT 9999 SCT035 SCT070 19/18 Q1016 NOSIG
12:06 VATSIM:LIEA 011650Z 29005KT 250V330 9999 SCT035 20/16 Q1019
12:06 VOICE CATALONIAN
12:08 Parking Brakes off
12:12 Take-off
12:12 Take off Weight: 381916 Lbs
12:12 Wind: 000º @ 000 Knots Heading: 217º
12:12 POS N43º 40´ 50´´ E010º 23´ 27´´
12:12 Flaps:2 at 201 Knots
12:12 Gear Up: 203 Knots
12:12 Flaps:1 at 214 Knots
12:12 Flaps:0 at 233 Knots
12:17 TOC
12:17 Fuel Weight: 43860 Lb
12:27 Wind:000º@000 Knots Heading: 158º Ground Speed: 462 Knots Altitude 28005 ft
12:37 TOD
12:37 Fuel Weight: 40608 Lb
12:42 Wind:000º@000 Knots Heading: 248º Ground Speed: 358 Knots Altitude 17477 ft
12:53 Flaps:1 at 238 Knots
12:55 Flaps:3 at 199 Knots
12:55 Gear Down: 181 Knots
12:55 Flaps:4 at 149 Knots
12:56 Flaps:5 at 140 Knots
12:57 Wind:000º@000 Knots Heading: 209º Ground Speed: 135 Knots Altitude 2293 ft
13:00 TouchDown:Rate -143 ft/min Speed: 122 Knots
13:00 VATSIM:LIEA 011720Z 29005KT 260V330 9999 FEW035 20/16 Q1019
13:00 Land
13:00 Wind:000º@000 Knots
13:00 Heading: 201º
13:00 Flight Duration: 00:48
13:00 Landing Weight: 373106 Lbs
13:00 POS N40º 37´ 41´´ E008º 17´ 19´´
13:03 Parking brakes on
13:03 Block to Block Duration: 00:55
13:03 Final Fuel: 38227 Lbls
13:03 Spent Fuel: 10676 Lbls
13:03 Flight Length: 289 NM
13:03 TODLand Length: 106 NM

Exportar CSV

Powered by Drupal - Modified by Danger4k